AirNav   Pilot Hours Calculator
 
 1069 users online  

41IN Professional Arts Building Heliport
New Albany, Indiana, USA

GOING TO NEW ALBANY?


FAA INFORMATION EFFECTIVE 26 JANUARY 2023

Location

FAA Identifier: 41IN
Lat/Long: 38-18-01.0000N 085-50-09.0000W
38-18.016667N 085-50.150000W
38.3002778,-85.8358333
(estimated)
Elevation: 512 ft. / 156 m (estimated)
Variation: 03W (1995)
Time zone: UTC -5 (UTC -4 during Daylight Saving Time)
Zip code: 47150

Heliport Operations

Heliport use: Private use, MEDICAL USE.
Activation date: 02/1998
Control tower: no
ARTCC: INDIANAPOLIS CENTER
FSS: TERRE HAUTE FLIGHT SERVICE STATION
Attendance: CONTINUOUS
Wind indicator: yes
Segmented circle: no
Lights: FOR PERIMETER LGTS CALL 812-945-4200.

Heliport Communications

WX AWOS-3 at JVY (6 nm NE): 118.575 (812-246-1278)
WX ASOS at SDF (9 nm SE): PHONE 502-367-1492
WX ASOS at LOU (9 nm SE): 118.275 (502-473-0693)

Nearby radio navigation aids

VOR radial/distance  VOR name  Freq  Var
IIUr313/17.0LOUISVILLE VORTAC114.8001E
FTKr016/24.5FORT KNOX VOR/DME109.6001W
MYSr039/(31.1)MYSTIC VOR108.2001W

 
NDB name  Hdg/Dist  Freq  Var  ID
CATCH206/11.433102WJV .--- ...-
LAANG318/13.341404WLK .-.. -.-
GODMAN021/21.539603WGOI --. --- ..

Heliport Services

Runway Information

Helipad H1

Dimensions: 51 x 54 ft. / 16 x 16 m
Surface: concrete, in good condition
Runway edge lights: PERI
AND FLOOD LGTS.
Latitude: 38-18.016667N
Longitude: 085-50.150000W
Elevation: 512.0 ft.
Traffic pattern: leftleft

Heliport Ownership and Management from official FAA records

Ownership: Privately-owned
Owner: BAPTIST HEALTHCARE SYSTEM, INC.
1919 STATE STREET, SUITE 102
NEW ALBANY, IN 47150
Phone (812) 949-5501
Manager: MARK TRUMAN
1919 STATE STREET, SUITE 102
NEW ALBANY, IN 47150
Phone (812) 949-5501
STEVE BOMAN- MAINTENANCE

Additional Remarks

FOR CD CTC LOUISVILLE APCH AT 502-375-7499

Instrument Procedures

There are no published instrument procedures at 41IN.

Some nearby airports with instrument procedures:

KJVY - Clark Regional Airport (6 nm NE)
KSDF - Louisville Muhammad Ali International Airport (9 nm SE)
KLOU - Bowman Field Airport (9 nm SE)
KFTK - Godman Army Airfield (24 nm S)
KIMS - Madison Municipal Airport (33 nm NE)
 
Loc | Ops | Rwys | IFR | FBO | Links
Com | Nav | Svcs | Stats | Notes
Area around 41IN (Professional Arts Building Heliport)
 
Road maps at: MapQuest Bing Google
 
Aerial photo
No photo
 
Sectional chart

 
Airport distance calculator
Flying to Professional Arts Building Heliport? Find the distance to fly.

From to 41IN

Sunrise and sunset
Times for 08-Feb-2023
 Local
(UTC-5)
 Zulu
(UTC)
Morning civil twilight07:1512:15
Sunrise07:4312:43
Sunset18:1223:12
Evening civil twilight18:4023:40

Current date and time
Zulu (UTC)  09-Feb-2023 03:33:05
Local (UTC-5)  08-Feb-2023 22:33:05
 
METAR
KJVY 
6nm NE 
090315Z AUTO 00000KT 7SM CLR 10/10 A2996 RMK AO2
KSDF 
9nm SE 
090256Z 12006KT 10SM BKN070 OVC090 12/10 A3000 RMK AO2 RAB49E56 SLP160 P0000 60000 T01220100 58033
KLOU 
9nm SE 
090253Z 11006KT 10SM SCT075 OVC090 12/10 A3001 RMK AO2 SLP163 60000 T01220100 58030
TAF
KSDF 
9nm SE 
081740Z 0818/0924 11006KT P6SM BKN050 FM082300 11008KT P6SM VCSH BKN035 TEMPO 0823/0902 5SM -SHRA BR BKN025 FM090700 17014G25KT P6SM BKN035 WS020/19045KT FM090900 18019G35KT P6SM VCSH BKN025 WS020/19050KT FM091200 19024G42KT P6SM -SHRA BKN025 FM091700 23023G37KT P6SM BKN035
NOTAMs
Click for the latest NOTAMs
NOTAMs are issued by the DoD/FAA and will open in a separate window not controlled by AirNav.

 

 
 

Would you like to see your business listed on this page?

 If your business provides an interesting product or service to pilots, flight crews, aircraft, or users of the Professional Arts Building Heliport, you should consider listing it here.  To start the listing process, click on the button below
 
Add a business
 

Other Pages about Professional Arts Building Heliport

Update a link
 
Copyright © AirNav, LLC. All rights reserved. Privacy Policy  Contact